Time;durP1;ratioP1;P1;durP2;ratioP2;P2;SDS_P1;SDS_P2;PMS_P1;PMS_P2;Temp;Humidity;BMP_temperature;BMP_pressure;BME280_temperature;BME280_humidity;BME280_pressure;Samples;Min_cycle;Max_cycle;Signal;HPM_P1;HPM_P2
2022/02/05 00:00:32;;;;;;;213.05;88.07;;;;;;;-5.02;66.01;93496.16;5049175;28;20055;-33
2022/02/05 00:06:00;;;;;;;83.57;37.97;;;;;;;-5.37;67.50;93494.91;5049281;28;20048;-33
2022/02/05 00:43:09;;;;;;;169.65;58.80;;;;;;;-5.77;67.81;93491.53;5037421;28;20029;-33
2022/02/05 00:45:39;;;;;;;94.05;38.03;;;;;;;-6.29;67.51;93490.47;5033910;28;20025;-33
2022/02/05 00:48:05;;;;;;;48.92;21.33;;;;;;;-6.21;68.86;93483.63;5036373;28;20050;-33
2022/02/05 00:50:32;;;;;;;50.90;23.58;;;;;;;-5.93;67.50;93484.50;5038327;28;20029;-33
2022/02/05 00:53:06;;;;;;;44.42;21.02;;;;;;;-6.36;67.75;93482.66;5042242;28;20028;-33
2022/02/05 00:55:35;;;;;;;50.78;21.67;;;;;;;-6.53;69.56;93478.69;5047918;28;20023;-33
2022/02/05 00:58:03;;;;;;;49.10;22.65;;;;;;;-6.24;68.34;93483.78;5030676;28;20029;-33
2022/02/05 01:00:30;;;;;;;46.53;22.20;;;;;;;-6.29;68.50;93487.03;5027616;28;20514;-33
2022/02/05 01:02:57;;;;;;;43.30;21.02;;;;;;;-6.15;68.21;93483.06;5029088;28;20105;-33
2022/02/05 01:05:22;;;;;;;42.88;24.25;;;;;;;-6.23;68.39;93477.97;5031154;28;20030;-33
2022/02/05 01:07:48;;;;;;;38.63;18.70;;;;;;;-6.39;68.61;93456.66;5031617;28;20021;-33
2022/02/05 01:10:14;;;;;;;40.00;19.42;;;;;;;-6.11;67.73;93483.69;5031649;28;20035;-34
2022/02/05 01:12:44;;;;;;;41.70;21.02;;;;;;;-6.10;67.38;93483.22;4985140;28;1350284;-34
2022/02/05 01:15:10;;;;;;;61.08;28.55;;;;;;;-6.01;66.38;93469.06;5033146;28;20044;-33
2022/02/05 01:17:43;;;;;;;61.17;28.05;;;;;;;-5.94;67.97;93479.56;5035508;28;20056;-34
2022/02/05 01:22:51;;;;;;;58.90;26.98;;;;;;;-5.98;67.51;93473.59;5038317;28;20029;-34
2022/02/05 01:25:21;;;;;;;60.90;29.25;;;;;;;-5.97;67.13;93457.00;5052258;28;20112;-34
2022/02/05 01:27:53;;;;;;;60.13;31.35;;;;;;;-6.01;65.97;93469.06;5018878;28;20521;-33
2022/02/05 01:30:41;;;;;;;56.63;27.67;;;;;;;-6.03;65.45;93460.72;5032622;28;20029;-34
2022/02/05 01:52:25;;;;;;;63.88;30.67;;;;;;;-6.57;67.45;93437.03;5032122;28;20017;-34
2022/02/05 01:57:24;;;;;;;54.42;25.65;;;;;;;-6.45;69.11;93434.28;5021977;28;20021;-34
2022/02/05 02:05:26;;;;;;;63.10;26.60;;;;;;;-6.37;66.06;93432.06;5031619;28;20048;-33
2022/02/05 02:15:53;;;;;;;38.05;18.25;;;;;;;-6.43;65.75;93434.56;5038083;28;20032;-34
2022/02/05 02:23:46;;;;;;;37.15;17.95;;;;;;;-6.82;67.07;93445.25;5041415;28;20033;-33
2022/02/05 02:28:57;;;;;;;68.32;31.67;;;;;;;-6.40;66.21;93454.44;5041272;28;20099;-34
2022/02/05 02:31:28;;;;;;;71.05;28.05;;;;;;;-6.43;65.34;93445.31;5040722;28;20044;-34
2022/02/05 02:33:57;;;;;;;62.67;29.15;;;;;;;-6.33;64.70;93444.19;5039846;28;20068;-34
2022/02/05 02:36:41;;;;;;;65.05;28.77;;;;;;;-6.65;66.14;93455.38;5043987;28;20048;-34
2022/02/05 02:39:12;;;;;;;44.38;20.73;;;;;;;-7.30;65.91;93423.19;5051155;28;20533;-34
2022/02/05 02:41:47;;;;;;;35.55;17.73;;;;;;;-7.18;66.40;93427.72;5050951;28;20075;-33
2022/02/05 02:44:12;;;;;;;37.92;18.45;;;;;;;-6.99;67.30;93450.81;5050632;28;20104;-34
2022/02/05 02:46:38;;;;;;;34.45;19.60;;;;;;;-7.05;67.35;93449.13;5050937;28;20024;-33
2022/02/05 02:49:06;;;;;;;38.03;17.00;;;;;;;-7.11;67.47;93421.38;5050816;28;20021;-33
2022/02/05 02:57:22;;;;;;;33.15;17.17;;;;;;;-7.12;66.64;93457.41;5041346;28;20036;-33
2022/02/05 02:59:58;;;;;;;34.88;16.92;;;;;;;-7.21;67.21;93463.47;5030761;28;20455;-32
2022/02/05 03:02:25;;;;;;;42.15;20.15;;;;;;;-7.37;67.27;93434.13;5030673;28;20021;-32
2022/02/05 03:04:53;;;;;;;37.75;18.30;;;;;;;-7.38;67.15;93435.31;5030180;28;20044;-32
2022/02/05 03:07:20;;;;;;;31.90;15.77;;;;;;;-7.06;65.83;93453.00;5030816;28;20030;-32
2022/02/05 03:09:46;;;;;;;35.75;18.20;;;;;;;-7.16;66.18;93452.19;5029687;28;20025;-33
2022/02/05 03:12:12;;;;;;;34.15;15.50;;;;;;;-7.13;67.52;93458.59;5030060;28;20427;-33
2022/02/05 03:14:37;;;;;;;34.55;15.43;;;;;;;-7.16;66.33;93457.53;5030253;28;20032;-33
2022/02/05 03:17:14;;;;;;;29.63;13.48;;;;;;;-6.95;67.00;93456.78;5049917;28;20033;-33
2022/02/05 03:19:40;;;;;;;28.73;15.15;;;;;;;-6.79;66.06;93455.09;5050317;28;20171;-33
2022/02/05 03:22:06;;;;;;;28.02;15.90;;;;;;;-7.13;66.03;93470.09;5049485;28;20104;-33
2022/02/05 03:24:31;;;;;;;33.50;16.50;;;;;;;-7.05;65.90;93467.91;5029935;28;20550;-33
2022/02/05 03:26:57;;;;;;;29.80;15.43;;;;;;;-6.83;65.15;93468.66;5028887;28;20025;-33
2022/02/05 03:29:22;;;;;;;35.95;17.48;;;;;;;-6.88;65.25;93474.59;5030361;28;20028;-33
2022/02/05 03:31:48;;;;;;;41.45;19.13;;;;;;;-7.05;65.57;93475.94;5029211;28;20033;-33
2022/02/05 03:34:13;;;;;;;36.70;19.33;;;;;;;-7.60;67.16;93471.31;5028996;28;20032;-33
2022/02/05 03:36:40;;;;;;;29.60;15.95;;;;;;;-7.68;68.02;93473.47;5029740;28;20021;-33
2022/02/05 03:39:06;;;;;;;34.00;17.02;;;;;;;-7.84;68.50;93470.94;5029961;28;20029;-33
2022/02/05 03:41:32;;;;;;;35.42;20.50;;;;;;;-7.98;68.44;93469.44;5029818;28;20466;-33
2022/02/05 03:43:58;;;;;;;38.47;16.67;;;;;;;-7.87;69.12;93469.09;5029405;28;20051;-33
2022/02/05 03:46:24;;;;;;;35.60;17.95;;;;;;;-7.73;69.18;93461.34;5029512;28;20017;-33
2022/02/05 03:48:49;;;;;;;31.83;17.38;;;;;;;-7.32;70.04;93478.44;5029271;28;20056;-33
2022/02/05 03:51:15;;;;;;;33.78;12.80;;;;;;;-7.26;67.69;93472.06;5029669;28;20026;-33
2022/02/05 03:53:40;;;;;;;35.65;17.92;;;;;;;-7.13;67.85;93482.75;5029386;28;20544;-33
2022/02/05 03:56:06;;;;;;;31.30;17.30;;;;;;;-7.17;65.78;93476.75;5028277;28;20561;-33
2022/02/05 03:58:31;;;;;;;45.25;20.77;;;;;;;-7.18;65.85;93485.97;5029795;28;20037;-33
2022/02/05 04:00:57;;;;;;;36.13;17.90;;;;;;;-7.33;66.56;93483.03;5039061;28;20036;-33
2022/02/05 04:03:22;;;;;;;40.25;16.02;;;;;;;-7.25;65.71;93475.50;5039318;28;20100;-33
2022/02/05 04:05:48;;;;;;;33.20;16.98;;;;;;;-7.29;66.38;93477.53;5043401;28;20071;-33
2022/02/05 04:08:15;;;;;;;37.28;17.38;;;;;;;-7.24;65.21;93475.06;5049115;28;20033;-35
2022/02/05 04:11:05;;;;;;;30.40;15.05;;;;;;;-7.18;65.71;93476.00;5048957;28;20537;-34
2022/02/05 04:16:22;;;;;;;33.42;18.95;;;;;;;-7.38;65.83;93475.53;5028385;28;20049;-34
2022/02/05 04:18:56;;;;;;;32.63;15.32;;;;;;;-7.48;67.46;93481.25;5028995;28;20108;-34
2022/02/05 04:21:23;;;;;;;40.50;18.20;;;;;;;-7.46;66.37;93489.59;5029485;28;20030;-34
2022/02/05 04:23:50;;;;;;;36.47;20.65;;;;;;;-7.40;67.18;93488.63;5029297;28;20029;-34
2022/02/05 04:26:16;;;;;;;47.83;22.85;;;;;;;-7.31;67.03;93485.28;5028754;28;20029;-34
2022/02/05 04:28:42;;;;;;;41.03;20.25;;;;;;;-7.40;66.51;93493.22;5029015;28;20040;-34
2022/02/05 04:31:08;;;;;;;47.05;21.15;;;;;;;-7.49;66.88;93493.16;5029381;28;20033;-34
2022/02/05 04:33:34;;;;;;;52.22;24.33;;;;;;;-7.48;66.74;93494.66;5029047;28;20087;-34
2022/02/05 04:35:59;;;;;;;48.40;20.85;;;;;;;-7.41;65.99;93503.22;5028565;28;20030;-34
2022/02/05 04:38:26;;;;;;;41.60;19.35;;;;;;;-7.48;65.72;93503.47;5049462;28;20082;-34
2022/02/05 05:20:34;;;;;;;41.70;19.27;;;;;;;-8.05;68.08;93514.44;5052221;28;20160;-34
2022/02/05 05:22:59;;;;;;;23.10;13.20;;;;;;;-8.28;67.64;93488.78;5052184;28;20029;-34
2022/02/05 05:25:25;;;;;;;32.42;14.65;;;;;;;-8.26;67.55;93505.16;5052333;28;20476;-34
2022/02/05 05:27:50;;;;;;;18.10;10.93;;;;;;;-8.26;68.26;93521.22;5035088;28;20029;-34
2022/02/05 05:30:15;;;;;;;24.27;13.48;;;;;;;-8.19;69.28;93493.44;5031795;28;20181;-34
2022/02/05 05:32:41;;;;;;;47.35;17.60;;;;;;;-7.82;69.73;93506.09;5031683;28;20029;-34
2022/02/05 05:35:07;;;;;;;41.10;21.05;;;;;;;-7.64;69.27;93510.91;5031926;28;20037;-34
2022/02/05 05:37:33;;;;;;;40.85;18.63;;;;;;;-7.64;68.02;93484.09;5031779;28;20040;-34
2022/02/05 05:39:59;;;;;;;45.05;22.10;;;;;;;-7.34;67.15;93516.38;5031827;28;20047;-34
2022/02/05 05:42:33;;;;;;;49.63;22.52;;;;;;;-7.17;67.49;93514.31;5033174;28;20039;-33
2022/02/05 05:48:14;;;;;;;60.33;27.33;;;;;;;-7.14;67.28;93513.44;5016715;28;20052;-34
2022/02/05 05:53:12;;;;;;;51.50;21.38;;;;;;;-6.82;65.45;93515.03;5041443;28;20418;-33
2022/02/05 05:55:42;;;;;;;44.10;22.30;;;;;;;-6.75;65.58;93523.59;5051278;28;20110;-33
2022/02/05 05:58:08;;;;;;;57.78;23.00;;;;;;;-6.79;65.77;93522.97;5032720;28;20037;-34
2022/02/05 06:00:33;;;;;;;42.65;20.15;;;;;;;-7.13;67.45;93526.44;5014020;28;20049;-34
2022/02/05 06:02:59;;;;;;;41.55;19.42;;;;;;;-7.09;68.06;93520.94;5031358;28;20059;-34
2022/02/05 06:05:25;;;;;;;42.75;20.60;;;;;;;-7.28;69.19;93525.41;5048513;28;20505;-33
2022/02/05 06:07:50;;;;;;;58.88;23.88;;;;;;;-7.41;70.44;93521.25;5051305;28;20037;-33
2022/02/05 06:10:15;;;;;;;38.17;19.08;;;;;;;-7.55;70.15;93525.13;5050051;28;20032;-33
2022/02/05 06:12:41;;;;;;;51.20;24.30;;;;;;;-7.61;69.01;93526.09;5050879;28;20056;-33
2022/02/05 06:15:08;;;;;;;77.18;33.55;;;;;;;-7.40;69.88;93530.78;5050962;28;20075;-33
2022/02/05 06:17:34;;;;;;;62.60;29.02;;;;;;;-7.00;68.92;93537.13;5051295;28;20028;-33
2022/02/05 06:20:00;;;;;;;44.17;23.80;;;;;;;-6.77;69.37;93534.00;5050996;28;20120;-33
2022/02/05 06:22:26;;;;;;;55.13;28.30;;;;;;;-6.46;69.63;93532.16;5050391;28;20848;-34
2022/02/05 06:24:51;;;;;;;51.90;27.70;;;;;;;-6.30;68.38;93537.31;5051116;28;20423;-33
2022/02/05 06:27:17;;;;;;;53.35;28.83;;;;;;;-6.14;66.82;93549.78;5050819;28;20048;-33
2022/02/05 06:29:42;;;;;;;50.50;24.60;;;;;;;-6.04;65.87;93545.22;5050921;28;20040;-33
2022/02/05 06:32:08;;;;;;;68.68;29.25;;;;;;;-6.41;67.07;93545.00;5037846;28;20036;-33
2022/02/05 06:34:33;;;;;;;61.35;26.73;;;;;;;-6.61;66.98;93539.22;5038854;28;20043;-33
2022/02/05 06:36:59;;;;;;;61.30;28.55;;;;;;;-6.58;68.48;93543.69;5050464;28;20064;-33
2022/02/05 06:39:25;;;;;;;59.17;26.85;;;;;;;-6.40;68.07;93535.78;5041889;28;20107;-34
2022/02/05 06:41:50;;;;;;;72.75;29.95;;;;;;;-6.53;68.36;93518.97;5029677;28;20651;-34
2022/02/05 06:44:16;;;;;;;171.40;65.68;;;;;;;-6.09;68.56;93548.47;5030579;28;20030;-33
2022/02/05 06:46:42;;;;;;;191.45;79.68;;;;;;;-6.00;66.75;93537.78;5030507;28;20439;-33
2022/02/05 06:49:08;;;;;;;163.55;72.20;;;;;;;-5.68;65.09;93543.41;5030436;28;20513;-34
2022/02/05 06:51:34;;;;;;;112.10;54.97;;;;;;;-5.64;64.91;93559.41;5029615;28;20033;-33
2022/02/05 06:54:00;;;;;;;104.47;48.28;;;;;;;-5.43;64.96;93551.25;5030519;28;20495;-34
2022/02/05 06:56:26;;;;;;;119.57;51.97;;;;;;;-5.71;65.38;93559.66;5030475;28;20080;-34
2022/02/05 06:58:51;;;;;;;133.82;61.97;;;;;;;-5.49;64.88;93550.34;5029202;28;20473;-34
2022/02/05 07:01:17;;;;;;;139.82;65.68;;;;;;;-5.30;64.71;93548.44;5029154;28;20494;-34
2022/02/05 07:03:42;;;;;;;121.85;62.25;;;;;;;-5.15;64.00;93556.72;5030528;28;20033;-34
2022/02/05 07:06:08;;;;;;;161.25;76.95;;;;;;;-5.45;65.56;93545.56;5029464;28;20473;-34
2022/02/05 07:08:33;;;;;;;143.13;68.13;;;;;;;-5.56;67.11;93544.50;5030064;28;20049;-34
2022/02/05 07:10:59;;;;;;;111.13;55.05;;;;;;;-5.10;66.53;93559.56;5032746;28;20130;-34
2022/02/05 07:13:25;;;;;;;113.32;58.42;;;;;;;-3.92;64.36;93552.19;5045850;28;20036;-34
2022/02/05 07:16:07;;;;;;;119.03;56.65;;;;;;;-2.36;58.65;93504.94;5049457;28;20478;-34
2022/02/05 07:21:11;;;;;;;70.35;40.88;;;;;;;-0.71;53.28;93546.59;5049433;28;20417;-34
2022/02/05 07:31:36;;;;;;;47.58;26.63;;;;;;;3.13;45.53;93540.09;5029817;28;20068;-35
2022/02/05 07:34:02;;;;;;;35.22;21.42;;;;;;;4.57;43.04;93537.50;5029696;28;20026;-35
2022/02/05 07:36:28;;;;;;;39.60;23.88;;;;;;;5.25;41.28;93526.25;5030057;28;20064;-35
2022/02/05 07:38:54;;;;;;;34.63;21.35;;;;;;;5.50;39.83;93520.78;5029903;28;20060;-35
2022/02/05 07:41:19;;;;;;;30.25;20.75;;;;;;;6.15;39.56;93526.03;5029535;28;20060;-34
2022/02/05 07:43:45;;;;;;;29.73;17.73;;;;;;;6.99;38.89;93527.06;5026345;28;20032;-35
2022/02/05 07:46:13;;;;;;;37.03;23.85;;;;;;;7.62;36.86;93528.97;5025562;28;20065;-35
2022/02/05 07:48:39;;;;;;;20.65;15.35;;;;;;;8.07;35.33;93535.09;5026686;28;20103;-35
2022/02/05 07:51:05;;;;;;;30.65;17.60;;;;;;;8.36;35.33;93533.25;5026428;28;20040;-35
2022/02/05 07:53:39;;;;;;;30.83;16.83;;;;;;;9.23;33.66;93526.25;5027224;28;20043;-35
2022/02/05 07:56:05;;;;;;;39.05;25.08;;;;;;;9.77;32.65;93530.88;5026319;28;20041;-36
2022/02/05 07:58:32;;;;;;;34.85;21.27;;;;;;;10.55;31.56;93529.47;5041149;28;20075;-35
2022/02/05 08:00:58;;;;;;;34.22;21.75;;;;;;;11.27;30.18;93514.19;5044094;28;20546;-36
2022/02/05 08:03:25;;;;;;;44.40;28.48;;;;;;;11.79;29.32;93512.00;5044781;28;20036;-36
2022/02/05 08:05:50;;;;;;;60.15;35.97;;;;;;;12.19;29.28;93515.63;5044186;28;20594;-36
2022/02/05 08:08:20;;;;;;;45.85;30.33;;;;;;;12.41;28.41;93523.09;5044589;28;20029;-36
2022/02/05 08:10:53;;;;;;;49.67;36.08;;;;;;;12.55;28.65;93524.34;5044758;28;20036;-36
2022/02/05 08:13:20;;;;;;;44.05;30.27;;;;;;;13.04;27.78;93520.97;5044509;28;20033;-36
2022/02/05 08:15:52;;;;;;;39.03;23.90;;;;;;;13.17;27.71;93520.72;5045084;28;20033;-36
2022/02/05 08:18:18;;;;;;;34.53;22.50;;;;;;;13.20;27.69;93516.84;5045677;28;20049;-36
2022/02/05 08:20:43;;;;;;;33.40;23.27;;;;;;;13.65;27.74;93530.38;5044555;28;20071;-36
2022/02/05 08:23:08;;;;;;;28.13;20.00;;;;;;;14.20;27.35;93526.56;5044745;28;20776;-36
2022/02/05 08:25:34;;;;;;;29.33;21.92;;;;;;;14.65;26.18;93520.53;5045092;28;20033;-36
2022/02/05 08:39:28;;;;;;;31.60;24.42;;;;;;;17.27;23.42;93529.94;5124514;27;20629;-35
2022/02/05 08:41:54;;;;;;;30.60;23.98;;;;;;;16.76;23.05;93538.06;5124686;27;20039;-35
2022/02/05 08:44:20;;;;;;;28.98;21.17;;;;;;;16.73;23.30;93551.13;5124875;27;20471;-35
2022/02/05 08:46:46;;;;;;;29.88;21.23;;;;;;;16.77;22.80;93547.91;5104221;27;20051;-35
2022/02/05 08:49:12;;;;;;;39.63;27.98;;;;;;;14.17;25.38;93552.69;5105318;28;20117;-35
2022/02/05 08:51:37;;;;;;;54.90;37.67;;;;;;;14.73;26.19;93546.19;5104681;28;20055;-36
2022/02/05 08:54:03;;;;;;;53.72;34.20;;;;;;;13.55;25.84;93551.75;5103671;28;20092;-36
2022/02/05 08:56:28;;;;;;;36.10;25.27;;;;;;;13.36;27.58;93556.31;5104534;28;20036;-35
2022/02/05 08:58:55;;;;;;;34.35;24.52;;;;;;;14.56;26.83;93542.69;5104519;28;20036;-35
2022/02/05 09:01:28;;;;;;;25.27;16.73;;;;;;;15.76;24.97;93538.31;5103635;28;20804;-36
2022/02/05 09:06:28;;;;;;;21.55;11.75;;;;;;;17.28;23.38;93525.81;5103687;28;20089;-36
2022/02/05 09:09:07;;;;;;;14.25;9.45;;;;;;;17.91;22.44;93521.81;5103654;28;20024;-36
2022/02/05 09:11:39;;;;;;;18.38;10.70;;;;;;;18.69;20.89;93529.16;5103295;28;20044;-35
2022/02/05 09:14:15;;;;;;;17.23;11.23;;;;;;;19.18;20.99;93521.81;5103771;28;20476;-36
2022/02/05 09:16:41;;;;;;;14.02;10.15;;;;;;;19.72;20.08;93516.84;5103170;28;20092;-36
2022/02/05 09:19:08;;;;;;;19.00;11.55;;;;;;;19.77;20.62;93506.59;5103138;28;20118;-36
2022/02/05 09:21:33;;;;;;;16.98;9.98;;;;;;;19.73;19.17;93512.69;5103125;28;20036;-36
2022/02/05 09:24:01;;;;;;;14.93;11.57;;;;;;;19.94;20.22;93504.19;5102716;28;20085;-35
2022/02/05 09:26:29;;;;;;;17.85;12.77;;;;;;;19.91;20.21;93510.25;5114023;28;20102;-37
2022/02/05 09:29:00;;;;;;;23.52;14.15;;;;;;;20.27;20.00;93507.59;5123501;27;20084;-35
2022/02/05 09:31:30;;;;;;;20.30;12.20;;;;;;;20.50;19.24;93506.81;5112836;27;20031;-36
2022/02/05 09:33:55;;;;;;;17.92;12.80;;;;;;;20.26;19.76;93511.00;5103404;28;20034;-37
2022/02/05 09:36:23;;;;;;;16.88;11.75;;;;;;;19.88;20.40;93509.41;5102839;28;20024;-36
2022/02/05 09:38:49;;;;;;;20.15;13.05;;;;;;;19.87;20.10;93515.63;5098549;28;20044;-36
2022/02/05 09:41:15;;;;;;;19.02;12.73;;;;;;;19.71;19.79;93514.66;5107792;28;20583;-36
2022/02/05 09:43:40;;;;;;;17.25;11.38;;;;;;;19.52;19.48;93512.78;5109662;28;20115;-36
2022/02/05 09:46:06;;;;;;;22.25;14.55;;;;;;;19.97;19.98;93521.81;5092058;28;20073;-36
2022/02/05 09:48:32;;;;;;;18.98;13.05;;;;;;;19.60;19.90;93516.81;5088889;28;20028;-36
2022/02/05 09:51:04;;;;;;;21.80;12.10;;;;;;;18.71;19.98;93523.69;5089307;28;20032;-35
2022/02/05 09:53:30;;;;;;;19.70;12.90;;;;;;;19.53;21.05;93523.38;5089468;28;20035;-36
2022/02/05 09:55:56;;;;;;;18.73;13.27;;;;;;;19.97;20.53;93522.56;5089242;28;20157;-36
2022/02/05 09:58:21;;;;;;;19.55;13.88;;;;;;;20.24;19.56;93525.66;5090040;28;20469;-36
2022/02/05 10:01:06;;;;;;;18.90;13.25;;;;;;;20.37;20.44;93518.66;5089375;28;20385;-36
2022/02/05 10:03:33;;;;;;;16.70;13.30;;;;;;;20.83;19.48;93504.53;5088795;28;20450;-35
2022/02/05 10:06:09;;;;;;;30.75;22.38;;;;;;;20.20;19.49;93508.59;5087368;28;20024;-36
2022/02/05 10:08:38;;;;;;;19.88;14.63;;;;;;;20.42;18.86;93481.81;5089040;28;20462;-35
2022/02/05 10:11:06;;;;;;;16.73;11.80;;;;;;;20.27;19.19;93504.06;5091140;28;20038;-36
2022/02/05 10:13:32;;;;;;;18.60;11.38;;;;;;;19.34;19.34;93506.03;5109324;28;20110;-35
2022/02/05 10:15:58;;;;;;;17.20;11.32;;;;;;;19.74;19.58;93500.16;5109225;28;20124;-36
2022/02/05 10:18:26;;;;;;;19.65;11.80;;;;;;;19.20;19.55;93494.69;5103753;28;20476;-36
2022/02/05 10:21:03;;;;;;;19.88;12.30;;;;;;;19.87;20.48;93498.81;5097316;28;20023;-36
2022/02/05 10:23:30;;;;;;;19.80;13.40;;;;;;;20.62;19.38;93492.78;5097890;28;20483;-36
2022/02/05 10:25:56;;;;;;;19.05;14.82;;;;;;;20.72;18.49;93496.16;5088306;28;20110;-36
2022/02/05 10:28:22;;;;;;;24.58;14.75;;;;;;;20.66;19.01;93490.91;5105734;28;20156;-36
2022/02/05 10:30:51;;;;;;;16.77;11.85;;;;;;;20.80;18.27;93486.13;5107228;28;20028;-35
2022/02/05 10:33:30;;;;;;;21.35;14.80;;;;;;;19.88;18.97;93486.28;5107341;28;20418;-35
2022/02/05 10:36:14;;;;;;;21.88;13.52;;;;;;;18.05;21.04;93487.19;5104697;28;20088;-35
2022/02/05 10:44:10;;;;;;;20.90;14.52;;;;;;;17.55;22.48;93496.97;5087012;28;20036;-36
2022/02/05 10:46:42;;;;;;;20.02;14.10;;;;;;;18.14;22.86;93483.59;5087112;28;20028;-35
2022/02/05 10:49:11;;;;;;;18.00;13.05;;;;;;;18.77;22.45;93480.06;5087585;28;20044;-35
2022/02/05 10:51:45;;;;;;;;;;;;;;;18.15;21.27;93479.47;5086716;28;20093;-34
2022/02/05 10:54:16;;;;;;;23.15;13.70;;;;;;;18.33;22.49;93473.59;5101580;28;19912;-35
2022/02/05 10:57:12;;;;;;;18.00;12.07;;;;;;;18.62;22.10;93474.16;5110745;28;20389;-34
2022/02/05 11:05:58;;;;;;;43.60;26.90;;;;;;;19.27;21.50;93460.13;5110727;28;20499;-36
2022/02/05 11:08:18;;;;;;;24.75;16.50;;;;;;;19.17;20.71;93462.28;5097276;28;20027;-36
2022/02/05 11:15:58;;;;;;;18.92;12.52;;;;;;;18.69;20.81;93464.84;5090175;28;20020;-35
2022/02/05 11:18:42;;;;;;;24.10;14.35;;;;;;;18.39;22.71;93465.59;5072848;28;20030;-35
2022/02/05 11:21:08;;;;;;;19.95;14.77;;;;;;;18.42;22.38;93462.38;5074421;28;20053;-35
2022/02/05 11:23:34;;;;;;;15.98;12.88;;;;;;;18.76;21.66;93461.81;5090261;28;20024;-35
2022/02/05 11:26:00;;;;;;;22.20;15.38;;;;;;;19.11;21.74;93463.97;5088752;28;20089;-35
2022/02/05 11:28:43;;;;;;;20.95;13.27;;;;;;;18.40;22.48;93456.66;5096587;28;20031;-36
2022/02/05 11:31:31;;;;;;;24.48;17.67;;;;;;;18.72;21.68;93458.03;5089886;28;20453;-36
2022/02/05 11:34:27;;;;;;;16.73;11.05;;;;;;;18.56;21.06;93459.78;5106853;28;20036;-35
2022/02/05 11:37:06;;;;;;;25.30;17.70;;;;;;;18.59;22.74;93464.16;5098609;28;20501;-36
2022/02/05 11:39:52;;;;;;;14.95;11.85;;;;;;;18.52;22.08;93451.13;5091440;28;20036;-36
2022/02/05 11:42:27;;;;;;;24.77;12.65;;;;;;;17.74;22.86;93447.34;5089368;28;20080;-36
2022/02/05 11:44:52;;;;;;;19.42;12.27;;;;;;;16.91;23.45;93448.53;5089213;28;20035;-35
2022/02/05 11:47:18;;;;;;;18.35;13.52;;;;;;;17.01;24.78;93452.03;5088683;28;20016;-35
2022/02/05 11:49:52;;;;;;;17.90;12.43;;;;;;;17.53;23.25;93444.53;5089123;28;20042;-35
2022/02/05 11:52:36;;;;;;;29.63;15.27;;;;;;;17.62;24.44;93446.53;5099943;28;20031;-35
2022/02/05 11:55:06;;;;;;;16.25;11.98;;;;;;;17.03;23.34;93450.13;5104950;28;20519;-35
2022/02/05 11:57:44;;;;;;;34.47;12.63;;;;;;;17.49;24.22;93449.06;5091893;28;20024;-36
2022/02/05 12:00:20;;;;;;;19.13;11.07;;;;;;;17.26;24.33;93449.63;5107408;28;20095;-35
2022/02/05 12:02:56;;;;;;;18.10;11.88;;;;;;;17.22;24.75;93449.31;5107075;28;20030;-35
2022/02/05 12:05:26;;;;;;;19.17;11.43;;;;;;;17.59;23.97;93444.19;5108463;28;20028;-35
2022/02/05 12:08:22;;;;;;;18.40;10.60;;;;;;;17.71;23.03;93445.78;5108508;28;20590;-35
2022/02/05 12:10:51;;;;;;;15.07;10.20;;;;;;;17.54;23.89;93448.78;5108311;28;20031;-35
2022/02/05 12:13:21;;;;;;;22.80;11.82;;;;;;;17.09;25.64;93447.00;5107531;28;20015;-35
2022/02/05 12:15:49;;;;;;;21.67;12.25;;;;;;;17.11;25.36;93442.31;5106809;28;20080;-36
2022/02/05 12:18:21;;;;;;;17.77;12.45;;;;;;;16.75;25.42;93445.31;5106192;28;20024;-35
2022/02/05 12:26:07;;;;;;;16.13;9.75;;;;;;;16.24;24.88;93451.34;5101329;28;20030;-35
2022/02/05 12:28:38;;;;;;;37.97;23.45;;;;;;;16.09;26.38;93440.50;5108146;28;20667;-35
2022/02/05 12:31:05;;;;;;;24.98;15.43;;;;;;;16.00;25.89;93441.94;5108765;28;20028;-35
2022/02/05 12:33:50;;;;;;;21.98;11.55;;;;;;;15.75;26.06;93444.25;5109039;28;20013;-35
2022/02/05 12:36:39;;;;;;;49.17;25.95;;;;;;;15.18;28.22;93453.13;5103046;28;20095;-36
2022/02/05 12:39:14;;;;;;;26.83;17.67;;;;;;;14.11;29.79;93461.31;5088534;28;20048;-35
2022/02/05 12:41:51;;;;;;;46.63;34.95;;;;;;;13.42;30.95;93463.25;5088935;28;20113;-35
2022/02/05 12:44:25;;;;;;;35.15;24.10;;;;;;;13.58;31.59;93453.50;5087364;28;20058;-36
2022/02/05 12:47:01;;;;;;;20.75;14.85;;;;;;;13.93;30.35;93461.84;5087622;28;20411;-35
2022/02/05 12:49:32;;;;;;;18.92;11.88;;;;;;;14.60;29.28;93462.44;5089057;28;20031;-36
2022/02/05 12:52:00;;;;;;;29.45;16.88;;;;;;;14.45;29.10;93446.69;5088571;28;20062;-35
2022/02/05 12:54:28;;;;;;;17.55;13.13;;;;;;;13.99;29.82;93452.00;5092294;28;20028;-35
2022/02/05 12:56:55;;;;;;;22.42;13.07;;;;;;;13.69;30.01;93464.13;5106959;28;20098;-35
2022/02/05 12:59:27;;;;;;;23.40;14.43;;;;;;;13.65;30.36;93451.97;5107907;28;20027;-35
2022/02/05 13:01:59;;;;;;;91.82;61.47;;;;;;;13.48;30.64;93436.03;5107707;28;20043;-34
2022/02/05 13:04:42;;;;;;;23.65;17.00;;;;;;;13.54;30.97;93439.28;5108073;28;20027;-34
2022/02/05 13:07:10;;;;;;;32.35;19.90;;;;;;;13.50;31.21;93430.66;5107245;28;20068;-35
2022/02/05 13:09:55;;;;;;;17.55;12.02;;;;;;;13.31;30.93;93438.75;5107658;28;20028;-34
2022/02/05 13:12:27;;;;;;;107.63;58.53;;;;;;;13.33;31.18;93433.38;5107559;28;20028;-35
2022/02/05 13:15:21;;;;;;;36.97;21.25;;;;;;;13.07;32.21;93438.75;5110040;28;20023;-35
2022/02/05 13:34:24;;;;;;;20.83;12.82;;;;;;;12.40;32.10;93433.03;5111204;28;20065;-35
2022/02/05 13:36:58;;;;;;;19.77;13.07;;;;;;;12.18;35.05;93434.59;5101949;28;20016;-35
2022/02/05 13:39:48;;;;;;;32.85;22.48;;;;;;;12.32;34.61;93428.84;5090540;28;20036;-34
2022/02/05 13:42:24;;;;;;;20.38;13.82;;;;;;;12.07;33.40;93420.44;5092010;28;20028;-35
2022/02/05 13:45:00;;;;;;;61.15;36.08;;;;;;;12.10;34.31;93395.16;5092041;28;20030;-34
2022/02/05 13:47:29;;;;;;;25.05;15.07;;;;;;;12.40;34.04;93432.28;5091956;28;20110;-35
2022/02/05 13:50:18;;;;;;;29.70;12.60;;;;;;;12.12;33.38;93438.88;5091932;28;20466;-34
2022/02/05 13:52:46;;;;;;;23.42;12.40;;;;;;;11.86;34.52;93429.00;5090290;28;20092;-34
2022/02/05 13:55:20;;;;;;;16.50;10.30;;;;;;;11.86;34.06;93442.84;5095178;28;20016;-34
2022/02/05 13:58:16;;;;;;;18.77;11.95;;;;;;;11.58;34.36;93447.84;5112054;28;20103;-34
2022/02/05 14:01:02;;;;;;;25.75;16.67;;;;;;;11.64;34.84;93443.59;5106978;28;20036;-34
2022/02/05 14:03:27;;;;;;;20.30;12.00;;;;;;;11.67;34.69;93447.31;5110827;28;20028;-34
2022/02/05 14:06:10;;;;;;;20.80;13.60;;;;;;;11.66;35.24;93454.09;5107775;28;20508;-34
2022/02/05 14:08:45;;;;;;;27.08;15.30;;;;;;;11.63;35.95;93449.69;5100768;28;20038;-34
2022/02/05 14:11:13;;;;;;;21.25;12.88;;;;;;;11.37;36.47;93406.56;5089193;28;20085;-34
2022/02/05 14:13:40;;;;;;;28.90;19.35;;;;;;;11.68;35.50;93451.53;5089479;28;20035;-34
2022/02/05 14:16:06;;;;;;;23.35;14.27;;;;;;;11.50;36.96;93449.88;5089422;28;20080;-34
2022/02/05 14:18:48;;;;;;;47.40;16.13;;;;;;;11.13;37.25;93459.66;5089172;28;20527;-34
2022/02/05 14:21:14;;;;;;;21.08;15.38;;;;;;;10.87;37.26;93440.66;5087807;28;20020;-34
2022/02/05 14:23:50;;;;;;;26.40;16.00;;;;;;;10.94;36.84;93454.47;5087638;28;20119;-34
2022/02/05 14:26:19;;;;;;;25.73;16.17;;;;;;;10.64;37.36;93452.41;5103262;28;20066;-34
2022/02/05 14:28:46;;;;;;;28.15;15.50;;;;;;;10.45;39.79;93460.28;5103112;28;20107;-34
2022/02/05 14:31:17;;;;;;;23.70;14.80;;;;;;;10.21;39.46;93457.25;5088632;28;20067;-34
2022/02/05 14:40:16;;;;;;;41.28;21.42;;;;;;;9.53;39.75;93462.41;5088531;28;20554;-34
2022/02/05 14:42:20;;;;;;;39.88;21.85;;;;;;;9.63;40.92;93472.38;5106307;28;20042;-34
2022/02/05 14:44:46;;;;;;;25.88;15.77;;;;;;;9.22;40.61;93425.63;5106488;28;20032;-34
2022/02/05 14:47:12;;;;;;;29.75;16.58;;;;;;;9.25;41.59;93467.88;5088809;28;20031;-34
2022/02/05 14:49:39;;;;;;;31.95;19.55;;;;;;;9.10;41.40;93466.47;5088305;28;20038;-34
2022/02/05 14:52:07;;;;;;;28.42;14.43;;;;;;;8.80;42.34;93470.97;5088117;28;20035;-34
2022/02/05 14:54:33;;;;;;;22.15;13.73;;;;;;;8.78;43.02;93474.28;5087003;28;20024;-34